»·PEaware :: SWA202 KLAS-KPHX

SWA202 :: KLAS-KPHX

FLIGHT INFORMATION

Flight Status: Arrived
Operator:
Southwest Airlines
More flights by this operator :: More flights under this callsign
Pilot: Ben L. (6391)
Aircraft: BOEING 737-800
(B738)
More flights by this aircraft type
Origin: KLAS McCarran Intl
United States
Destination: KPHX Phoenix Sky Harbor Intl
United States
More flights between these airports :: More routes between these airports
Route: COWBY8 COWBY TENTS BRUSR1
File this flight plan on PilotEdge
Remarks:
Altitude:
(Current/Filed)
29,000ft
Speed:
(Current/Filed)
460kts
Departed: 01-Sep-19 05:14 PM
Arrived: 01-Sep-19 06:02 PM
Distance/Time
Traveled:
222nm/0:48
Distance/Time
To Go:
Arrived

Flight Plot

Page will automatically refresh every two minutes.

Flight plan parsing failed; only flown route is shown


Map Options




Map Legend


Flown Route
Filed Route
Departure Airport
Arrival Airport
Navaid (VOR, NDB)
Fix

Horizontal Profiles

Position Reports

Time Latitude Longitude Heading Altitude Ground
Speed
01-Sep-19 17:00 36.081382 -115.145272 152 2091ft 0kts
01-Sep-19 17:01 36.081382 -115.145272 152 2091ft 0kts
01-Sep-19 17:02 36.081382 -115.145272 152 2091ft 0kts
01-Sep-19 17:03 36.081382 -115.145272 152 2091ft 0kts
01-Sep-19 17:04 36.081382 -115.145272 152 2091ft 0kts
01-Sep-19 17:05 36.081382 -115.145272 152 2091ft 0kts
01-Sep-19 17:06 36.080521 -115.144901 169 2091ft 16kts
01-Sep-19 17:07 36.078953 -115.144876 180 2094ft 2kts
01-Sep-19 17:08 36.078207 -115.142410 88 2087ft 27kts
01-Sep-19 17:09 36.078243 -115.132878 90 2059ft 26kts
01-Sep-19 17:10 36.078248 -115.124438 91 2042ft 20kts
01-Sep-19 17:11 36.077496 -115.121513 140 2038ft 0kts
01-Sep-19 17:12 36.076696 -115.121259 180 2038ft 13kts
01-Sep-19 17:13 36.076124 -115.153471 266 2285ft 187kts
01-Sep-19 17:14 36.068091 -115.226051 241 4225ft 253kts
01-Sep-19 17:15 36.010758 -115.283662 201 6722ft 297kts
01-Sep-19 17:16 35.931629 -115.286287 166 8616ft 290kts
01-Sep-19 17:17 35.864415 -115.233105 125 11221ft 337kts
01-Sep-19 17:18 35.832379 -115.119915 108 14511ft 360kts
01-Sep-19 17:19 35.828718 -114.993706 85 17626ft 381kts
01-Sep-19 17:20 35.840924 -114.860856 85 19792ft 397kts
01-Sep-19 17:21 35.853239 -114.724283 85 22745ft 407kts
01-Sep-19 17:22 35.865871 -114.582413 85 25295ft 423kts
01-Sep-19 17:23 35.878797 -114.435279 85 27645ft 439kts
01-Sep-19 17:24 35.891851 -114.284464 85 28918ft 468kts
01-Sep-19 17:25 35.905449 -114.125255 85 28965ft 468kts
01-Sep-19 17:26 35.918187 -113.965161 91 29046ft 466kts
01-Sep-19 17:27 35.895979 -113.808562 109 29049ft 463kts
01-Sep-19 17:28 35.852753 -113.659110 111 29048ft 462kts
01-Sep-19 17:29 35.809006 -113.509595 111 29048ft 463kts
01-Sep-19 17:30 35.765023 -113.360073 111 29048ft 463kts
01-Sep-19 17:31 35.721972 -113.214493 111 29098ft 461kts
01-Sep-19 17:32 35.677788 -113.065846 111 29265ft 461kts
01-Sep-19 17:33 35.633405 -112.917308 111 29324ft 460kts
01-Sep-19 17:34 35.589130 -112.769913 109 29331ft 460kts
01-Sep-19 17:35 35.544386 -112.621725 110 29338ft 461kts
01-Sep-19 17:36 35.469023 -112.494881 139 29347ft 462kts
01-Sep-19 17:37 35.355217 -112.426781 166 29346ft 457kts
01-Sep-19 17:38 35.230297 -112.400413 170 29344ft 457kts
01-Sep-19 17:39 35.107100 -112.374542 168 29305ft 435kts
01-Sep-19 17:40 34.986190 -112.348275 169 29302ft 440kts
01-Sep-19 17:41 34.865121 -112.322077 168 29048ft 454kts
01-Sep-19 17:42 34.746176 -112.295924 167 27379ft 443kts
01-Sep-19 17:43 34.622866 -112.268826 168 24618ft 453kts
01-Sep-19 17:44 34.497010 -112.241257 168 21742ft 461kts
01-Sep-19 17:45 34.378976 -112.212969 166 19844ft 413kts
01-Sep-19 17:46 34.271782 -112.184976 166 17635ft 379kts
01-Sep-19 17:47 34.167890 -112.158121 166 15313ft 374kts
01-Sep-19 17:48 34.070606 -112.139946 180 13809ft 333kts
01-Sep-19 17:49 33.979887 -112.148967 184 11968ft 317kts
01-Sep-19 17:50 33.897601 -112.159139 187 10399ft 303kts
01-Sep-19 17:51 33.817891 -112.176288 188 9178ft 281kts
01-Sep-19 17:53 33.742885 -112.192125 187 8110ft 260kts
01-Sep-19 17:54 33.670184 -112.203062 180 7008ft 256kts
01-Sep-19 17:55 33.598810 -112.208468 180 5501ft 256kts
01-Sep-19 17:56 33.527875 -112.213971 180 4035ft 247kts
01-Sep-19 17:57 33.466617 -112.215876 165 3427ft 201kts
01-Sep-19 17:58 33.429596 -112.180526 109 2987ft 170kts
01-Sep-19 17:59 33.428676 -112.125118 83 2610ft 161kts
01-Sep-19 18:00 33.428920 -112.074969 86 1946ft 146kts
01-Sep-19 18:01 33.428860 -112.027527 84 1157ft 134kts
01-Sep-19 18:02 33.429951 -112.006375 85 1116ft 10kts
01-Sep-19 18:03 33.431404 -112.003227 2 1116ft 16kts
01-Sep-19 18:04 33.432849 -111.998714 85 1116ft 8kts
01-Sep-19 18:05 33.433987 -111.997699 81 1116ft 2kts

Navigation Log

Ident Type
Flight plan parsing failed, navigation log unavailable